createdAt,value
2023-06-02T00:01:36.990Z,101338.31
2023-06-02T00:04:07.611Z,101335.16
2023-06-02T00:06:39.320Z,101340.47
2023-06-02T00:09:09.156Z,101344.59
2023-06-02T00:11:38.046Z,101351.09
2023-06-02T00:14:12.292Z,101340.19
2023-06-02T00:16:47.466Z,101348.28
2023-06-02T00:19:21.370Z,101344.41
2023-06-02T00:21:55.111Z,101341.81
2023-06-02T00:24:23.601Z,101342.88
2023-06-02T00:26:52.401Z,101337.38
2023-06-02T00:29:20.945Z,101342.41
2023-06-02T00:31:49.155Z,101336.13
2023-06-02T00:34:18.961Z,101347.41
2023-06-02T00:36:47.392Z,101346.63
2023-06-02T00:39:16.708Z,101350.75
2023-06-02T00:41:45.790Z,101350.91
2023-06-02T00:44:14.383Z,101351.50
2023-06-02T00:46:42.857Z,101356.50
2023-06-02T00:49:11.447Z,101372.31
2023-06-02T00:51:42.788Z,101374.22
2023-06-02T00:54:11.630Z,101398.38
2023-06-02T00:56:40.647Z,101409.38
2023-06-02T00:59:09.008Z,101419.59
2023-06-02T01:01:39.945Z,101419.38
2023-06-02T01:04:08.591Z,101414.41
2023-06-02T01:06:39.479Z,101403.50
2023-06-02T01:09:10.304Z,101399.50
2023-06-02T01:11:38.922Z,101391.41
2023-06-02T01:14:07.176Z,101385.31
2023-06-02T01:16:36.533Z,101380.31
2023-06-02T01:19:07.706Z,101380.56
2023-06-02T01:21:38.629Z,101384.78
2023-06-02T01:24:09.293Z,101386.78
2023-06-02T01:26:37.467Z,101387.59
2023-06-02T01:29:05.816Z,101390.09
2023-06-02T01:31:37.062Z,101386.84
2023-06-02T01:34:08.054Z,101379.88
2023-06-02T01:36:38.579Z,101377.91
2023-06-02T01:39:09.888Z,101390.38
2023-06-02T01:41:41.267Z,101388.91
2023-06-02T01:44:09.771Z,101387.59
2023-06-02T01:46:38.051Z,101382.63
2023-06-02T01:49:06.170Z,101380.06
2023-06-02T01:51:34.709Z,101379.22
2023-06-02T01:54:03.490Z,101380.94
2023-06-02T01:56:33.162Z,101379.94
2023-06-02T01:59:01.660Z,101384.34
2023-06-02T02:01:30.189Z,101389.31
2023-06-02T02:03:58.606Z,101380.78
2023-06-02T02:06:31.231Z,101381.66
2023-06-02T02:08:59.496Z,101389.78
2023-06-02T02:11:30.309Z,101392.75
2023-06-02T02:13:59.924Z,101404.13
2023-06-02T02:16:28.375Z,101409.25
2023-06-02T02:18:57.661Z,101406.81
2023-06-02T02:21:26.790Z,101416.84
2023-06-02T02:23:55.590Z,101406.06
2023-06-02T02:26:24.662Z,101408.88
2023-06-02T02:28:53.330Z,101410.47
2023-06-02T02:31:23.848Z,101403.50
2023-06-02T02:33:52.119Z,101410.59
2023-06-02T02:36:20.894Z,101393.63
2023-06-02T02:38:49.477Z,101395.31
2023-06-02T02:41:19.890Z,101388.59
2023-06-02T02:43:48.382Z,101388.84
2023-06-02T02:46:17.470Z,101385.56
2023-06-02T02:48:47.266Z,101388.13
2023-06-02T02:51:15.735Z,101384.56
2023-06-02T02:53:44.543Z,101384.16
2023-06-02T02:56:13.844Z,101380.84
2023-06-02T02:58:42.262Z,101381.22
2023-06-02T03:01:16.672Z,101380.72
2023-06-02T03:03:47.075Z,101380.00
2023-06-02T03:06:19.263Z,101384.41
2023-06-02T03:08:47.835Z,101378.78
2023-06-02T03:11:16.371Z,101385.88
2023-06-02T03:13:44.500Z,101394.66
2023-06-02T03:16:13.802Z,101391.25
2023-06-02T03:18:42.423Z,101387.81
2023-06-02T03:21:12.736Z,101387.81
2023-06-02T03:23:41.878Z,101394.19
2023-06-02T03:26:13.065Z,101385.66
2023-06-02T03:28:43.269Z,101390.78
2023-06-02T03:31:12.409Z,101386.75
2023-06-02T03:33:40.684Z,101384.19
2023-06-02T03:36:09.198Z,101389.06
2023-06-02T03:38:41.981Z,101388.50
2023-06-02T03:41:10.674Z,101389.44
2023-06-02T03:43:39.068Z,101394.00
2023-06-02T03:46:09.056Z,101398.50
2023-06-02T03:48:37.846Z,101394.47
2023-06-02T03:51:07.729Z,101398.41
2023-06-02T03:53:37.086Z,101390.47
2023-06-02T03:56:07.053Z,101396.81
2023-06-02T03:58:35.474Z,101396.06
2023-06-02T04:01:03.941Z,101400.84
2023-06-02T04:03:33.925Z,101400.19
2023-06-02T04:06:02.413Z,101395.91
2023-06-02T04:08:30.953Z,101404.09
2023-06-02T04:10:59.305Z,101403.25
2023-06-02T04:13:29.514Z,101401.53
2023-06-02T04:15:59.327Z,101406.19
2023-06-02T04:18:28.836Z,101405.22
2023-06-02T04:21:00.050Z,101406.66
2023-06-02T04:23:29.590Z,101421.69
2023-06-02T04:25:57.797Z,101420.38
2023-06-02T04:28:27.135Z,101421.00
2023-06-02T04:30:58.277Z,101430.66
2023-06-02T04:33:28.783Z,101438.09
2023-06-02T04:35:57.675Z,101441.16
2023-06-02T04:38:26.138Z,101452.38
2023-06-02T04:40:54.820Z,101456.53
2023-06-02T04:43:23.633Z,101452.03
2023-06-02T04:45:52.020Z,101444.56
2023-06-02T04:48:23.430Z,101451.28
2023-06-02T04:50:51.951Z,101458.00
2023-06-02T04:53:20.377Z,101465.59
2023-06-02T04:55:49.506Z,101467.53
2023-06-02T04:58:18.436Z,101471.91
2023-06-02T05:00:46.815Z,101477.41
2023-06-02T05:03:15.355Z,101484.63
2023-06-02T05:05:45.528Z,101476.78
2023-06-02T05:08:14.782Z,101471.72
2023-06-02T05:10:43.469Z,101479.16
2023-06-02T05:13:11.749Z,101482.06
2023-06-02T05:15:40.830Z,101493.78
2023-06-02T05:18:09.973Z,101491.28
2023-06-02T05:20:38.241Z,101483.44
2023-06-02T05:23:07.792Z,101491.00
2023-06-02T05:25:37.051Z,101498.31
2023-06-02T05:28:05.618Z,101498.13
2023-06-02T05:30:34.034Z,101492.53
2023-06-02T05:33:02.778Z,101505.16
2023-06-02T05:35:31.456Z,101504.09
2023-06-02T05:37:59.858Z,101506.16
2023-06-02T05:40:29.723Z,101502.66
2023-06-02T05:42:58.742Z,101498.94
2023-06-02T05:45:26.918Z,101500.13
2023-06-02T05:47:55.476Z,101498.03
2023-06-02T05:50:25.861Z,101487.09
2023-06-02T05:52:54.342Z,101482.22
2023-06-02T05:55:23.308Z,101471.66
2023-06-02T05:57:53.365Z,101470.91
2023-06-02T06:00:22.874Z,101465.59
2023-06-02T06:02:52.268Z,101442.50
2023-06-02T06:05:27.042Z,101438.41
2023-06-02T06:07:55.710Z,101415.88
2023-06-02T06:10:24.666Z,101384.25
2023-06-02T06:12:55.376Z,101371.50
2023-06-02T06:15:23.765Z,101342.03
2023-06-02T06:17:53.208Z,101338.81
2023-06-02T06:20:22.381Z,101332.41
2023-06-02T06:22:51.886Z,101331.59
2023-06-02T06:25:22.390Z,101323.13
2023-06-02T06:27:52.370Z,101308.47
2023-06-02T06:30:23.791Z,101311.03
2023-06-02T06:32:56.123Z,101304.25
2023-06-02T06:35:25.567Z,101304.41
2023-06-02T06:37:54.710Z,101309.94
2023-06-02T06:40:23.009Z,101297.66
2023-06-02T06:42:51.452Z,101309.78
2023-06-02T06:45:27.897Z,101310.88
2023-06-02T06:47:56.481Z,101305.38
2023-06-02T06:50:25.385Z,101313.00
2023-06-02T06:52:53.570Z,101303.78
2023-06-02T06:55:22.075Z,101306.44
2023-06-02T06:57:50.702Z,101301.75
2023-06-02T07:00:19.381Z,101307.44
2023-06-02T07:02:49.708Z,101298.94
2023-06-02T07:05:18.194Z,101302.88
2023-06-02T07:07:46.872Z,101298.50
2023-06-02T07:10:15.747Z,101300.84
2023-06-02T07:12:44.237Z,101298.56
2023-06-02T07:15:13.395Z,101296.56
2023-06-02T07:17:42.699Z,101294.28
2023-06-02T07:20:14.013Z,101293.84
2023-06-02T07:22:42.384Z,101298.94
2023-06-02T07:25:10.966Z,101291.88
2023-06-02T07:27:39.656Z,101299.91
2023-06-02T07:30:09.173Z,101297.84
2023-06-02T07:32:37.416Z,101290.41
2023-06-02T07:35:06.140Z,101285.69
2023-06-02T07:37:36.114Z,101295.50
2023-06-02T07:40:05.366Z,101291.28
2023-06-02T07:42:33.625Z,101283.75
2023-06-02T07:45:01.856Z,101285.41
2023-06-02T07:47:30.255Z,101281.53
2023-06-02T07:49:58.571Z,101287.31
2023-06-02T07:52:26.785Z,101293.44
2023-06-02T07:54:56.543Z,101296.81
2023-06-02T07:57:24.922Z,101299.34
2023-06-02T07:59:55.344Z,101302.13
2023-06-02T08:02:23.921Z,101304.63
2023-06-02T08:04:52.730Z,101304.69
2023-06-02T08:07:21.829Z,101305.28
2023-06-02T08:09:50.330Z,101298.34
2023-06-02T08:12:20.306Z,101305.94
2023-06-02T08:14:48.804Z,101293.03
2023-06-02T08:17:17.196Z,101297.38
2023-06-02T08:19:45.328Z,101291.66
2023-06-02T08:22:13.523Z,101295.41
2023-06-02T08:24:42.595Z,101302.22
2023-06-02T08:27:10.803Z,101301.31
2023-06-02T08:29:40.406Z,101302.88
2023-06-02T08:32:08.649Z,101303.59
2023-06-02T08:34:37.790Z,101301.78
2023-06-02T08:37:06.376Z,101294.72
2023-06-02T08:39:36.179Z,101297.16
2023-06-02T08:42:04.928Z,101298.38
2023-06-02T08:44:33.972Z,101296.94
2023-06-02T08:47:05.241Z,101299.00
2023-06-02T08:49:37.048Z,101296.28
2023-06-02T08:52:07.948Z,101292.06
2023-06-02T08:54:37.699Z,101297.53
2023-06-02T08:57:07.287Z,101289.69
2023-06-02T08:59:35.565Z,101294.16
2023-06-02T09:02:06.057Z,101289.63
2023-06-02T09:04:34.821Z,101283.72
2023-06-02T09:07:18.177Z,101284.31
2023-06-02T09:09:47.522Z,101287.94
2023-06-02T09:12:16.704Z,101287.56
2023-06-02T09:14:45.120Z,101286.09
2023-06-02T09:17:28.367Z,101289.28
2023-06-02T09:19:57.748Z,101287.53
2023-06-02T09:22:26.141Z,101278.84
2023-06-02T09:24:55.237Z,101273.94
2023-06-02T09:27:25.748Z,101280.69
2023-06-02T09:30:02.671Z,101279.16
2023-06-02T09:32:38.395Z,101280.69
2023-06-02T09:35:08.344Z,101274.19
2023-06-02T09:37:36.496Z,101279.38
2023-06-02T09:40:08.611Z,101271.91
2023-06-02T09:42:44.739Z,101278.72
2023-06-02T09:45:14.621Z,101275.13
2023-06-02T09:47:44.486Z,101278.66
2023-06-02T09:50:33.212Z,101279.31
2023-06-02T09:53:03.540Z,101270.94
2023-06-02T09:55:34.082Z,101281.94
2023-06-02T09:58:03.594Z,101272.63
2023-06-02T10:00:32.167Z,101272.97
2023-06-02T10:03:03.940Z,101284.28
2023-06-02T10:05:32.588Z,101284.75
2023-06-02T10:08:06.433Z,101284.47
2023-06-02T10:10:46.163Z,101280.47
2023-06-02T10:13:24.209Z,101279.00
2023-06-02T10:15:59.637Z,101275.34
2023-06-02T10:18:51.974Z,101282.28
2023-06-02T10:21:30.965Z,101288.78
2023-06-02T10:24:03.320Z,101275.25
2023-06-02T10:26:45.575Z,101284.72
2023-06-02T10:29:15.487Z,101279.06
2023-06-02T10:31:44.404Z,101274.16
2023-06-02T10:34:30.064Z,101279.50
2023-06-02T10:37:18.615Z,101273.41
2023-06-02T10:39:52.674Z,101277.44
2023-06-02T10:42:21.701Z,101268.66
2023-06-02T10:44:50.362Z,101269.50
2023-06-02T10:47:38.331Z,101263.00
2023-06-02T10:50:11.523Z,101261.91
2023-06-02T10:53:00.440Z,101264.97
2023-06-02T10:55:42.915Z,101265.19
2023-06-02T10:58:14.232Z,101271.09
2023-06-02T11:00:51.751Z,101266.88
2023-06-02T11:03:34.445Z,101270.56
2023-06-02T11:06:22.470Z,101268.72
2023-06-02T11:08:53.364Z,101258.03
2023-06-02T11:11:40.724Z,101259.38
2023-06-02T11:14:10.889Z,101264.44
2023-06-02T11:16:39.454Z,101257.00
2023-06-02T11:19:08.115Z,101255.88
2023-06-02T11:21:36.406Z,101262.88
2023-06-02T11:24:05.250Z,101258.00
2023-06-02T11:26:33.724Z,101258.50
2023-06-02T11:29:17.647Z,101263.69
2023-06-02T11:31:53.852Z,101247.66
2023-06-02T11:34:22.248Z,101255.31
2023-06-02T11:36:50.817Z,101256.38
2023-06-02T11:39:19.212Z,101263.78
2023-06-02T11:41:57.714Z,101258.91
2023-06-02T11:44:26.380Z,101245.31
2023-06-02T11:46:56.193Z,101250.28
2023-06-02T11:49:24.740Z,101246.44
2023-06-02T11:51:58.662Z,101236.34
2023-06-02T11:54:27.058Z,101246.50
2023-06-02T11:56:55.533Z,101233.63
2023-06-02T11:59:24.721Z,101236.09
2023-06-02T12:01:54.645Z,101247.25
2023-06-02T12:04:24.375Z,101237.91
2023-06-02T12:06:53.669Z,101242.09
2023-06-02T12:09:22.466Z,101234.31
2023-06-02T12:11:56.396Z,101236.22
2023-06-02T12:14:24.654Z,101241.13
2023-06-02T12:17:03.741Z,101236.59
2023-06-02T12:19:33.439Z,101233.47
2023-06-02T12:22:09.760Z,101236.88
2023-06-02T12:24:39.149Z,101238.25
2023-06-02T12:27:08.583Z,101241.63
2023-06-02T12:29:37.599Z,101238.97
2023-06-02T12:32:06.803Z,101235.34
2023-06-02T12:34:36.755Z,101225.75
2023-06-02T12:37:05.475Z,101243.88
2023-06-02T12:39:35.554Z,101242.09
2023-06-02T12:42:07.077Z,101230.44
2023-06-02T12:44:35.327Z,101241.84
2023-06-02T12:47:04.427Z,101240.72
2023-06-02T12:49:33.353Z,101235.34
2023-06-02T12:52:03.548Z,101232.84
2023-06-02T12:54:31.975Z,101232.34
2023-06-02T12:57:00.380Z,101224.66
2023-06-02T12:59:28.800Z,101230.56
2023-06-02T13:01:57.170Z,101225.84
2023-06-02T13:04:25.353Z,101228.22
2023-06-02T13:06:54.175Z,101237.72
2023-06-02T13:09:24.118Z,101230.06
2023-06-02T13:11:53.556Z,101224.75
2023-06-02T13:14:21.889Z,101225.75
2023-06-02T13:16:50.394Z,101221.41
2023-06-02T13:19:18.614Z,101224.53
2023-06-02T13:21:47.328Z,101219.03
2023-06-02T13:24:17.295Z,101221.66
2023-06-02T13:26:48.268Z,101221.19
2023-06-02T13:29:16.423Z,101222.63
2023-06-02T13:31:44.906Z,101216.16
2023-06-02T13:34:13.309Z,101212.41
2023-06-02T13:36:41.663Z,101207.13
2023-06-02T13:39:10.221Z,101209.44
2023-06-02T13:41:39.066Z,101209.09
2023-06-02T13:44:13.002Z,101212.78
2023-06-02T13:46:41.597Z,101202.22
2023-06-02T13:49:09.766Z,101206.53
2023-06-02T13:51:38.792Z,101207.16
2023-06-02T13:54:07.104Z,101210.25
2023-06-02T13:56:35.211Z,101201.28
2023-06-02T13:59:03.466Z,101201.13
2023-06-02T14:01:33.674Z,101199.22
2023-06-02T14:04:02.071Z,101200.03
2023-06-02T14:06:31.559Z,101197.78
2023-06-02T14:09:00.109Z,101197.41
2023-06-02T14:11:28.454Z,101190.22
2023-06-02T14:13:56.892Z,101197.81
2023-06-02T14:16:25.304Z,101196.69
2023-06-02T14:18:55.358Z,101205.94
2023-06-02T14:21:23.933Z,101202.50
2023-06-02T14:23:52.499Z,101212.53
2023-06-02T14:26:20.988Z,101197.97
2023-06-02T14:28:49.702Z,101201.41
2023-06-02T14:31:19.504Z,101194.47
2023-06-02T14:33:48.130Z,101201.69
2023-06-02T14:36:18.178Z,101204.22
2023-06-02T14:38:46.409Z,101199.53
2023-06-02T14:41:14.576Z,101192.50
2023-06-02T14:43:42.918Z,101199.34
2023-06-02T14:46:11.184Z,101189.25
2023-06-02T14:48:39.560Z,101187.56
2023-06-02T14:51:07.983Z,101188.03
2023-06-02T14:53:37.710Z,101179.94
2023-06-02T14:56:06.695Z,101179.97
2023-06-02T14:58:35.187Z,101190.91
2023-06-02T15:01:04.853Z,101189.44
2023-06-02T15:03:33.329Z,101181.22
2023-06-02T15:06:02.534Z,101175.94
2023-06-02T15:08:30.834Z,101167.41
2023-06-02T15:11:00.536Z,101170.44
2023-06-02T15:13:32.024Z,101159.72
2023-06-02T15:16:01.094Z,101164.47
2023-06-02T15:18:34.459Z,101158.81
2023-06-02T15:21:08.629Z,101159.25
2023-06-02T15:23:36.769Z,101157.88
2023-06-02T15:26:06.790Z,101156.50
2023-06-02T15:28:35.191Z,101151.53
2023-06-02T15:31:04.311Z,101153.59
2023-06-02T15:33:32.734Z,101149.41
2023-06-02T15:36:01.192Z,101151.78
2023-06-02T15:38:29.612Z,101145.19
2023-06-02T15:40:58.191Z,101146.25
2023-06-02T15:43:28.172Z,101144.75
2023-06-02T15:45:56.392Z,101146.97
2023-06-02T15:48:24.633Z,101135.19
2023-06-02T15:50:52.975Z,101135.03
2023-06-02T15:53:21.525Z,101134.59
2023-06-02T15:55:50.141Z,101124.56
2023-06-02T15:58:18.614Z,101130.81
2023-06-02T16:00:48.260Z,101139.03
2023-06-02T16:03:16.575Z,101132.56
2023-06-02T16:05:45.085Z,101137.75
2023-06-02T16:08:13.335Z,101148.13
2023-06-02T16:10:41.688Z,101140.41
2023-06-02T16:13:10.183Z,101137.00
2023-06-02T16:15:38.536Z,101136.63
2023-06-02T16:18:08.620Z,101131.13
2023-06-02T16:20:37.607Z,101139.19
2023-06-02T16:23:05.782Z,101130.84
2023-06-02T16:25:34.397Z,101126.81
2023-06-02T16:28:02.709Z,101123.97
2023-06-02T16:30:30.929Z,101132.09
2023-06-02T16:33:00.674Z,101123.69
2023-06-02T16:35:30.368Z,101124.22
2023-06-02T16:37:58.708Z,101123.84
2023-06-02T16:40:27.413Z,101122.66
2023-06-02T16:42:55.738Z,101121.44
2023-06-02T16:45:24.257Z,101129.03
2023-06-02T16:47:52.654Z,101122.53
2023-06-02T16:50:21.200Z,101122.13
2023-06-02T16:52:51.223Z,101129.50
2023-06-02T16:55:19.491Z,101124.06
2023-06-02T16:57:48.332Z,101132.25
2023-06-02T17:00:17.348Z,101128.69
2023-06-02T17:02:45.484Z,101128.03
2023-06-02T17:05:14.050Z,101136.47
2023-06-02T17:07:42.467Z,101136.50
2023-06-02T17:10:12.359Z,101128.09
2023-06-02T17:12:41.181Z,101130.91
2023-06-02T17:15:09.702Z,101126.44
2023-06-02T17:17:37.891Z,101129.59
2023-06-02T17:20:07.441Z,101129.19
2023-06-02T17:22:37.808Z,101122.84
2023-06-02T17:25:08.356Z,101131.72
2023-06-02T17:27:38.968Z,101123.31
2023-06-02T17:30:08.201Z,101131.72
2023-06-02T17:32:37.403Z,101135.13
2023-06-02T17:35:06.339Z,101132.16
2023-06-02T17:37:35.250Z,101131.13
2023-06-02T17:40:06.112Z,101133.91
2023-06-02T17:42:35.026Z,101137.31
2023-06-02T17:45:05.125Z,101144.06
2023-06-02T17:47:34.465Z,101144.91
2023-06-02T17:50:02.737Z,101153.78
2023-06-02T17:52:31.952Z,101148.75
2023-06-02T17:55:00.598Z,101153.78
2023-06-02T17:57:29.370Z,101151.63
2023-06-02T17:59:57.640Z,101156.06
2023-06-02T18:02:27.407Z,101149.94
2023-06-02T18:04:55.813Z,101157.53
2023-06-02T18:07:25.339Z,101145.44
2023-06-02T18:09:53.815Z,101137.25
2023-06-02T18:12:22.534Z,101142.25
2023-06-02T18:14:51.097Z,101142.22
2023-06-02T18:17:20.735Z,101138.81
2023-06-02T18:19:51.300Z,101140.38
2023-06-02T18:22:20.107Z,101136.16
2023-06-02T18:24:48.600Z,101129.38
2023-06-02T18:27:16.916Z,101135.66
2023-06-02T18:29:45.064Z,101137.75
2023-06-02T18:32:13.270Z,101140.81
2023-06-02T18:34:41.394Z,101143.94
2023-06-02T18:37:11.086Z,101152.09
2023-06-02T18:39:39.655Z,101140.72
2023-06-02T18:42:08.060Z,101125.31
2023-06-02T18:44:42.622Z,101128.63
2023-06-02T18:47:14.271Z,101133.63
2023-06-02T18:49:42.576Z,101131.91
2023-06-02T18:52:12.196Z,101136.09
2023-06-02T18:54:42.561Z,101131.84
2023-06-02T18:57:16.427Z,101127.59
2023-06-02T18:59:49.019Z,101131.28
2023-06-02T19:02:19.191Z,101130.25
2023-06-02T19:04:48.025Z,101128.94
2023-06-02T19:07:18.161Z,101137.09
2023-06-02T19:09:46.408Z,101134.00
2023-06-02T19:12:17.184Z,101134.16
2023-06-02T19:14:46.117Z,101132.66
2023-06-02T19:17:17.704Z,101131.94
2023-06-02T19:19:50.580Z,101125.19
2023-06-02T19:22:23.856Z,101127.81
2023-06-02T19:24:52.289Z,101131.97
2023-06-02T19:27:21.748Z,101130.22
2023-06-02T19:29:51.036Z,101133.16
2023-06-02T19:32:20.796Z,101142.97
2023-06-02T19:34:50.751Z,101135.66
2023-06-02T19:37:21.076Z,101143.25
2023-06-02T19:39:52.463Z,101148.28
2023-06-02T19:42:22.405Z,101148.84
2023-06-02T19:44:50.800Z,101147.41
2023-06-02T19:47:19.671Z,101150.13
2023-06-02T19:49:48.051Z,101150.31
2023-06-02T19:52:16.557Z,101150.50
2023-06-02T19:54:47.069Z,101150.03
2023-06-02T19:57:16.837Z,101144.34
2023-06-02T19:59:45.423Z,101143.91
2023-06-02T20:02:13.874Z,101138.22
2023-06-02T20:04:42.486Z,101142.25
2023-06-02T20:07:14.401Z,101139.91
2023-06-02T20:09:44.583Z,101134.50
2023-06-02T20:12:12.915Z,101139.38
2023-06-02T20:14:43.475Z,101145.88
2023-06-02T20:17:12.371Z,101146.59
2023-06-02T20:19:41.095Z,101139.81
2023-06-02T20:22:09.413Z,101151.28
2023-06-02T20:24:38.112Z,101145.72
2023-06-02T20:27:07.736Z,101146.81
2023-06-02T20:29:37.861Z,101152.47
2023-06-02T20:32:09.475Z,101154.91
2023-06-02T20:34:38.292Z,101154.94
2023-06-02T20:37:06.633Z,101140.56
2023-06-02T20:39:34.939Z,101150.25
2023-06-02T20:42:03.400Z,101148.22
2023-06-02T20:44:32.767Z,101155.56
2023-06-02T20:47:03.107Z,101151.84
2023-06-02T20:49:32.961Z,101153.41
2023-06-02T20:52:04.919Z,101166.16
2023-06-02T20:54:34.951Z,101168.19
2023-06-02T20:57:03.813Z,101166.34
2023-06-02T20:59:32.603Z,101163.44
2023-06-02T21:02:01.335Z,101170.94
2023-06-02T21:04:31.544Z,101178.56
2023-06-02T21:07:03.862Z,101173.63
2023-06-02T21:09:37.551Z,101175.84
2023-06-02T21:12:08.247Z,101176.69
2023-06-02T21:14:37.592Z,101179.38
2023-06-02T21:17:06.965Z,101180.72
2023-06-02T21:19:36.165Z,101184.25
2023-06-02T21:22:06.566Z,101178.31
2023-06-02T21:24:38.083Z,101184.03
2023-06-02T21:27:06.909Z,101189.78
2023-06-02T21:29:35.595Z,101191.28
2023-06-02T21:32:07.319Z,101194.50
2023-06-02T21:34:37.173Z,101195.16
2023-06-02T21:37:09.407Z,101197.81
2023-06-02T21:39:37.811Z,101199.78
2023-06-02T21:42:06.421Z,101198.34
2023-06-02T21:44:35.991Z,101199.34
2023-06-02T21:47:04.180Z,101204.09
2023-06-02T21:49:32.453Z,101194.22
2023-06-02T21:52:02.472Z,101203.66
2023-06-02T21:54:32.089Z,101200.06
2023-06-02T21:57:01.724Z,101205.28
2023-06-02T21:59:30.793Z,101197.09
2023-06-02T22:02:00.004Z,101204.63
2023-06-02T22:04:28.871Z,101205.06
2023-06-02T22:07:00.885Z,101204.72
2023-06-02T22:09:31.492Z,101196.44
2023-06-02T22:11:59.635Z,101196.59
2023-06-02T22:14:28.464Z,101196.03
2023-06-02T22:16:58.939Z,101203.47
2023-06-02T22:19:27.430Z,101200.78
2023-06-02T22:21:57.605Z,101205.31
2023-06-02T22:24:28.524Z,101210.03
2023-06-02T22:27:00.616Z,101210.38
2023-06-02T22:29:30.981Z,101200.84
2023-06-02T22:32:01.517Z,101196.75
2023-06-02T22:34:30.679Z,101204.09
2023-06-02T22:36:58.814Z,101195.22
2023-06-02T22:39:28.829Z,101194.56
2023-06-02T22:41:57.286Z,101197.75
2023-06-02T22:44:28.077Z,101198.06
2023-06-02T22:46:56.964Z,101204.63
2023-06-02T22:49:25.465Z,101205.09
2023-06-02T22:51:53.590Z,101200.34
2023-06-02T22:54:25.497Z,101201.28
2023-06-02T22:56:56.599Z,101209.88
2023-06-02T22:59:26.630Z,101203.38
2023-06-02T23:01:55.364Z,101210.66
2023-06-02T23:04:25.860Z,101205.47
2023-06-02T23:06:54.623Z,101199.53
2023-06-02T23:09:25.929Z,101191.59
2023-06-02T23:11:57.366Z,101194.19
2023-06-02T23:14:27.658Z,101193.28
2023-06-02T23:16:56.565Z,101193.16
2023-06-02T23:19:28.352Z,101200.53
2023-06-02T23:21:59.635Z,101189.47
2023-06-02T23:24:31.208Z,101191.16
2023-06-02T23:27:04.133Z,101194.03
2023-06-02T23:29:35.067Z,101194.16
2023-06-02T23:32:03.507Z,101198.03
2023-06-02T23:34:35.562Z,101188.06
2023-06-02T23:37:07.163Z,101196.88
2023-06-02T23:39:35.645Z,101194.63
2023-06-02T23:42:05.323Z,101197.88
2023-06-02T23:44:37.625Z,101201.41
2023-06-02T23:47:06.026Z,101204.25
2023-06-02T23:49:34.199Z,101201.09
2023-06-02T23:52:03.837Z,101198.22
2023-06-02T23:54:32.078Z,101199.06
2023-06-02T23:57:01.390Z,101201.31
2023-06-02T23:59:30.570Z,101201.03
